Xaxim, Brazil
Current Conditions -  °F | °C
As of 6:00 PM on Thursday 18 Dec 2014 (Local Time) from SBCH Reporting Station
Scattered Clouds Scattered Clouds  
Wind Chill: 86°   Ceiling: Unl
Heat Index: 88°   Visibility: 6mi
Dew Point: 66°   Wind: 7mph
Humidity: 51%   Direction: 170°S
Pressure: 29.83"   Gusts: NA
Location:  26.96°S, 52.53°W
Report Text: SBCH 182000Z 17006KT 9999 SCT040 30/19 Q1010
Loading
Personal Weather Stations






























Interactive Weather Map New forecast layout! Learn more

10-Day Weather Forecast

Advertisements
Track Severe Weather on mobile